Time;durP1;ratioP1;P1;durP2;ratioP2;P2;SDS_P1;SDS_P2;PMS_P1;PMS_P2;Temp;Humidity;BMP_temperature;BMP_pressure;BME280_temperature;BME280_humidity;BME280_pressure;Samples;Min_cycle;Max_cycle;Signal;HPM_P1;HPM_P2
2022/08/05 00:00:16;;;;;;;2.65;2.20;;;22.60;99.90;;;;;;5035632;28;20044;-55
2022/08/05 00:02:44;;;;;;;3.33;2.88;;;22.60;99.90;;;;;;5035298;28;20045;-56
2022/08/05 00:05:20;;;;;;;6.63;2.70;;;22.60;99.90;;;;;;5035405;28;20099;-55
2022/08/05 00:08:08;;;;;;;3.67;2.22;;;22.60;99.90;;;;;;5035733;28;20098;-56
2022/08/05 00:10:56;;;;;;;4.05;2.20;;;22.60;99.90;;;;;;5034853;28;20911;-55
2022/08/05 00:13:34;;;;;;;3.45;3.10;;;22.60;99.90;;;;;;5035569;28;20102;-55
2022/08/05 00:16:12;;;;;;;5.05;2.65;;;22.60;99.90;;;;;;5035168;28;20465;-56
2022/08/05 00:18:43;;;;;;;3.28;2.28;;;22.60;99.90;;;;;;5035612;28;20045;-53
2022/08/05 00:21:12;;;;;;;2.83;2.53;;;22.60;99.90;;;;;;5034877;28;20051;-56
2022/08/05 00:23:42;;;;;;;2.65;2.10;;;22.60;99.90;;;;;;5035254;28;20051;-54
2022/08/05 00:26:14;;;;;;;4.70;2.35;;;22.70;99.90;;;;;;5034309;28;20133;-55
2022/08/05 00:28:43;;;;;;;4.07;2.38;;;22.70;99.90;;;;;;5034059;28;20064;-56
2022/08/05 00:31:12;;;;;;;2.65;2.08;;;22.70;99.90;;;;;;5034691;28;20426;-57
2022/08/05 00:33:39;;;;;;;7.75;2.80;;;22.70;99.90;;;;;;5035064;28;20045;-56
2022/08/05 00:36:26;;;;;;;6.67;2.37;;;22.70;99.90;;;;;;5035190;28;20052;-56
2022/08/05 00:39:12;;;;;;;3.15;2.10;;;22.70;99.90;;;;;;5034261;28;20128;-54
2022/08/05 00:41:45;;;;;;;6.20;3.17;;;22.70;99.90;;;;;;5034985;28;20072;-56
2022/08/05 00:44:22;;;;;;;2.60;2.03;;;22.70;99.90;;;;;;5034374;28;20044;-57
2022/08/05 00:46:57;;;;;;;2.47;2.20;;;22.70;99.90;;;;;;5035413;28;20150;-54
2022/08/05 00:49:30;;;;;;;2.67;2.45;;;22.70;99.90;;;;;;5034775;28;20044;-56
2022/08/05 00:51:58;;;;;;;3.42;2.40;;;22.70;99.90;;;;;;5035192;28;20037;-55
2022/08/05 00:54:25;;;;;;;2.88;2.22;;;22.70;99.90;;;;;;5013535;28;20037;-56
2022/08/05 00:56:55;;;;;;;2.78;2.20;;;22.70;99.90;;;;;;5034265;28;20049;-55
2022/08/05 00:59:22;;;;;;;2.38;2.17;;;22.70;99.90;;;;;;5034223;28;20073;-56
2022/08/05 01:01:50;;;;;;;4.13;2.40;;;22.70;99.90;;;;;;5034914;28;20045;-55
2022/08/05 01:04:17;;;;;;;2.70;2.38;;;22.60;99.90;;;;;;5033642;28;20529;-53
2022/08/05 01:06:52;;;;;;;2.83;2.63;;;22.60;99.90;;;;;;5034914;28;20175;-57
2022/08/05 01:09:21;;;;;;;2.60;2.38;;;22.60;99.90;;;;;;5032947;28;20044;-54
2022/08/05 01:11:51;;;;;;;2.45;2.25;;;22.60;99.90;;;;;;5033780;28;20550;-55
2022/08/05 01:14:25;;;;;;;2.88;2.50;;;22.60;99.90;;;;;;5034069;28;20049;-55
2022/08/05 01:17:14;;;;;;;2.97;2.67;;;22.60;99.90;;;;;;5034593;28;20390;-55
2022/08/05 01:19:50;;;;;;;3.63;2.80;;;22.60;99.90;;;;;;5034350;28;20045;-55
2022/08/05 01:23:03;;;;;;;3.58;2.65;;;22.60;99.90;;;;;;5034583;28;20810;-55
2022/08/05 01:26:12;;;;;;;2.60;2.30;;;22.60;99.90;;;;;;5030443;28;20142;-56
2022/08/05 01:29:04;;;;;;;8.95;2.55;;;22.50;99.90;;;;;;5034355;28;20266;-54
2022/08/05 01:31:33;;;;;;;2.83;2.50;;;22.50;99.90;;;;;;5034347;28;20069;-55
2022/08/05 01:34:19;;;;;;;5.68;2.63;;;22.50;99.90;;;;;;5034358;28;20049;-55
2022/08/05 01:36:50;;;;;;;2.70;2.50;;;22.50;99.90;;;;;;5034274;28;20045;-56
2022/08/05 01:39:18;;;;;;;6.72;2.55;;;22.50;99.90;;;;;;5033958;28;20127;-56
2022/08/05 01:42:09;;;;;;;2.80;2.60;;;22.40;99.90;;;;;;5034339;28;20560;-55
2022/08/05 01:44:39;;;;;;;4.97;2.60;;;22.50;99.90;;;;;;5033757;28;20041;-56
2022/08/05 01:47:07;;;;;;;3.22;2.85;;;22.50;99.90;;;;;;5034728;28;20655;-55
2022/08/05 01:49:36;;;;;;;3.25;2.45;;;22.50;99.90;;;;;;5033556;28;20111;-55
2022/08/05 01:52:24;;;;;;;4.03;2.58;;;22.50;99.90;;;;;;5034298;28;20056;-57
2022/08/05 01:54:55;;;;;;;8.73;2.90;;;22.50;99.90;;;;;;5025690;28;20044;-56
2022/08/05 01:57:29;;;;;;;3.88;2.95;;;22.60;99.90;;;;;;5012597;28;20053;-56
2022/08/05 02:00:17;;;;;;;3.78;3.42;;;22.70;99.90;;;;;;5013819;28;20107;-54
2022/08/05 02:02:56;;;;;;;6.82;3.30;;;22.90;99.90;;;;;;5014428;28;20328;-56
2022/08/05 02:05:29;;;;;;;6.35;3.13;;;23.20;99.90;;;;;;5013920;28;20584;-56
2022/08/05 02:08:00;;;;;;;4.45;3.25;;;23.40;99.90;;;;;;5014675;28;20037;-55
2022/08/05 02:10:37;;;;;;;5.15;3.25;;;23.50;99.90;;;;;;5024944;28;20403;-55
2022/08/05 02:13:34;;;;;;;7.80;3.00;;;23.60;99.90;;;;;;5033080;28;20041;-56
2022/08/05 02:16:24;;;;;;;5.85;2.78;;;23.60;99.90;;;;;;5036705;28;20041;-56
2022/08/05 02:19:30;;;;;;;4.43;2.97;;;23.60;99.90;;;;;;5037963;28;20452;-56
2022/08/05 02:22:20;;;;;;;4.78;3.17;;;23.50;99.90;;;;;;5036184;28;20103;-57
2022/08/05 02:24:56;;;;;;;3.35;2.80;;;23.50;99.90;;;;;;5037375;28;20044;-54
2022/08/05 02:27:26;;;;;;;12.15;2.97;;;23.40;99.90;;;;;;5036504;28;20040;-55
2022/08/05 02:30:12;;;;;;;8.02;3.97;;;23.30;99.90;;;;;;5037980;28;20033;-54
2022/08/05 02:32:42;;;;;;;6.22;3.45;;;23.20;99.90;;;;;;5037089;28;20102;-55
2022/08/05 02:35:15;;;;;;;5.38;3.22;;;23.10;99.90;;;;;;5037559;28;20518;-54
2022/08/05 02:37:55;;;;;;;5.22;3.58;;;22.90;99.90;;;;;;5037368;28;20063;-55
2022/08/05 02:40:26;;;;;;;4.47;3.20;;;22.70;99.90;;;;;;5036926;28;20049;-56
2022/08/05 02:42:55;;;;;;;7.25;3.47;;;22.50;99.90;;;;;;5037764;28;20072;-56
2022/08/05 02:45:23;;;;;;;3.38;3.08;;;22.40;99.90;;;;;;5036945;28;20103;-54
2022/08/05 02:47:53;;;;;;;4.82;3.70;;;22.20;99.90;;;;;;5036871;28;20057;-56
2022/08/05 02:50:37;;;;;;;3.00;2.70;;;22.20;99.90;;;;;;5036185;28;20263;-59
2022/08/05 02:53:11;;;;;;;3.67;2.53;;;22.00;99.90;;;;;;5037115;28;20396;-56
2022/08/05 02:55:47;;;;;;;5.07;3.10;;;22.00;99.90;;;;;;5026082;28;20541;-56
2022/08/05 02:58:22;;;;;;;4.85;3.25;;;21.90;99.90;;;;;;5016846;28;20739;-57
2022/08/05 03:00:55;;;;;;;11.05;3.70;;;21.80;99.90;;;;;;5023056;28;20054;-56
2022/08/05 03:03:22;;;;;;;4.80;3.10;;;21.70;99.90;;;;;;5023734;28;20045;-56
2022/08/05 03:05:51;;;;;;;4.65;3.33;;;21.60;99.90;;;;;;5017083;28;20065;-58
2022/08/05 03:08:39;;;;;;;5.35;3.88;;;21.50;99.90;;;;;;5017383;28;20041;-55
2022/08/05 03:11:21;;;;;;;5.78;3.90;;;21.40;99.90;;;;;;5033021;28;20103;-56
2022/08/05 03:14:08;;;;;;;7.15;3.65;;;21.30;99.90;;;;;;5036658;28;20041;-55
2022/08/05 03:16:39;;;;;;;3.35;3.00;;;21.10;99.90;;;;;;5036761;28;20045;-57
2022/08/05 03:19:06;;;;;;;5.32;3.42;;;21.00;99.90;;;;;;5036828;28;20041;-59
2022/08/05 03:21:43;;;;;;;3.65;3.30;;;20.90;99.90;;;;;;5036424;28;20124;-57
2022/08/05 03:24:17;;;;;;;4.10;3.03;;;20.80;99.90;;;;;;5035739;28;20514;-57
2022/08/05 03:26:57;;;;;;;4.97;3.50;;;20.70;99.90;;;;;;5035425;28;20055;-58
2022/08/05 03:29:23;;;;;;;4.50;3.53;;;20.60;99.90;;;;;;5036252;28;20053;-56
2022/08/05 03:32:11;;;;;;;3.77;3.20;;;20.50;99.90;;;;;;5036027;28;20060;-60
2022/08/05 03:34:41;;;;;;;4.47;3.40;;;20.30;99.90;;;;;;5035573;28;20877;-61
2022/08/05 03:37:17;;;;;;;5.53;3.20;;;20.20;99.90;;;;;;5036432;28;20037;-54
2022/08/05 03:39:58;;;;;;;6.07;3.80;;;20.00;99.90;;;;;;5035643;28;20052;-56
2022/08/05 03:42:28;;;;;;;3.92;2.67;;;19.80;99.90;;;;;;5035858;28;20076;-56
2022/08/05 03:44:58;;;;;;;4.47;2.97;;;19.60;99.90;;;;;;5034762;28;20797;-57
2022/08/05 03:47:27;;;;;;;6.35;3.03;;;19.50;99.90;;;;;;5036323;28;20044;-57
2022/08/05 03:50:01;;;;;;;5.55;3.15;;;19.40;99.90;;;;;;5035012;28;20099;-56
2022/08/05 03:52:32;;;;;;;6.00;3.17;;;19.30;99.90;;;;;;5035456;28;20758;-57
2022/08/05 03:55:31;;;;;;;6.47;4.47;;;19.10;99.90;;;;;;5033360;28;20730;-57
2022/08/05 03:58:21;;;;;;;3.35;3.05;;;19.10;99.90;;;;;;5028147;28;20745;-57
2022/08/05 04:00:58;;;;;;;7.45;3.95;;;19.00;99.90;;;;;;5035097;28;20133;-58
2022/08/05 04:03:27;;;;;;;6.07;3.72;;;18.90;99.90;;;;;;5033847;28;20503;-57
2022/08/05 04:05:56;;;;;;;5.82;3.58;;;18.90;99.90;;;;;;5036310;28;20045;-57
2022/08/05 04:08:28;;;;;;;5.38;3.00;;;18.90;99.90;;;;;;5035407;28;20040;-58
2022/08/05 04:11:06;;;;;;;3.67;3.20;;;18.90;99.90;;;;;;5035248;28;20051;-57
2022/08/05 04:13:39;;;;;;;3.70;3.30;;;18.90;99.90;;;;;;5019012;28;20535;-56
2022/08/05 04:16:17;;;;;;;3.30;2.75;;;18.90;99.90;;;;;;5035740;28;20051;-57
2022/08/05 04:18:54;;;;;;;3.30;3.00;;;18.90;99.90;;;;;;5034582;28;20083;-54
2022/08/05 04:21:25;;;;;;;3.20;2.90;;;19.00;99.90;;;;;;5035567;28;20045;-57
2022/08/05 04:24:13;;;;;;;5.10;3.42;;;19.00;99.90;;;;;;5032863;28;20102;-57
2022/08/05 04:26:45;;;;;;;3.25;2.95;;;19.00;99.90;;;;;;5035749;28;20138;-57
2022/08/05 04:29:12;;;;;;;5.28;3.03;;;19.00;99.90;;;;;;5035201;28;20033;-57
2022/08/05 04:31:40;;;;;;;3.78;2.83;;;19.00;99.90;;;;;;5035306;28;20037;-58
2022/08/05 04:34:08;;;;;;;3.40;3.10;;;19.00;99.90;;;;;;5035859;28;20102;-57
2022/08/05 04:36:55;;;;;;;6.63;3.50;;;19.10;99.90;;;;;;5033489;28;20041;-57
2022/08/05 04:39:22;;;;;;;5.32;2.92;;;19.10;99.90;;;;;;5035311;28;20079;-57
2022/08/05 04:41:50;;;;;;;5.20;3.33;;;19.20;99.90;;;;;;5034733;28;20044;-57
2022/08/05 04:44:18;;;;;;;4.88;3.38;;;19.20;99.90;;;;;;5035430;28;20060;-57
2022/08/05 04:46:59;;;;;;;5.25;3.38;;;19.30;99.90;;;;;;5033873;28;20135;-56
2022/08/05 04:49:39;;;;;;;2.78;2.38;;;19.30;99.90;;;;;;5035204;28;20124;-56
2022/08/05 04:52:26;;;;;;;4.85;2.78;;;19.30;99.90;;;;;;5034969;28;20045;-57
2022/08/05 04:54:54;;;;;;;9.02;2.80;;;19.40;99.90;;;;;;5033353;28;20138;-58
2022/08/05 04:57:24;;;;;;;4.90;2.70;;;19.50;99.90;;;;;;5023178;28;20052;-54
2022/08/05 04:59:56;;;;;;;7.38;2.83;;;19.50;99.90;;;;;;5015065;28;20890;-57
2022/08/05 05:02:24;;;;;;;3.92;3.25;;;19.50;99.90;;;;;;5014240;28;20115;-57
2022/08/05 05:05:07;;;;;;;3.50;3.20;;;19.50;99.90;;;;;;5014856;28;20037;-56
2022/08/05 05:07:58;;;;;;;3.97;3.20;;;19.50;99.90;;;;;;5013335;28;20297;-57
2022/08/05 05:10:32;;;;;;;3.22;2.92;;;19.60;99.90;;;;;;5026164;28;20049;-57
2022/08/05 05:13:00;;;;;;;3.50;2.97;;;19.60;99.90;;;;;;5034088;28;20251;-51
2022/08/05 05:15:30;;;;;;;5.60;2.63;;;19.60;99.90;;;;;;5034446;28;20354;-50
2022/08/05 05:18:17;;;;;;;4.85;2.80;;;19.60;99.90;;;;;;5034682;28;20048;-52
2022/08/05 05:20:59;;;;;;;3.92;2.80;;;19.70;99.90;;;;;;5034455;28;20660;-50
2022/08/05 05:23:26;;;;;;;7.30;3.03;;;19.80;99.90;;;;;;5033321;28;20075;-49
2022/08/05 05:26:12;;;;;;;3.17;2.63;;;19.90;99.90;;;;;;5033512;28;20124;-49
2022/08/05 05:28:40;;;;;;;2.25;2.08;;;19.90;99.90;;;;;;5034771;28;20041;-52
2022/08/05 05:31:11;;;;;;;2.83;2.33;;;20.00;99.90;;;;;;5033796;28;20053;-51
2022/08/05 05:33:38;;;;;;;3.25;2.90;;;20.10;99.90;;;;;;5034826;28;20675;-53
2022/08/05 05:36:25;;;;;;;3.05;2.72;;;20.10;99.90;;;;;;5034018;28;20047;-52
2022/08/05 05:38:55;;;;;;;2.97;2.40;;;20.20;99.90;;;;;;5034404;28;20812;-52
2022/08/05 05:41:23;;;;;;;3.63;2.35;;;20.30;99.90;;;;;;5033790;28;20827;-53
2022/08/05 05:43:49;;;;;;;2.80;2.58;;;20.40;99.90;;;;;;5034775;28;20720;-51
2022/08/05 05:46:26;;;;;;;2.50;2.30;;;20.50;99.90;;;;;;5034679;28;20041;-51
2022/08/05 05:48:52;;;;;;;;;;;20.50;99.90;;;;;;5035484;28;20471;-53
2022/08/05 05:51:21;;;;;;;3.92;2.70;;;20.60;99.90;;;;;;5037058;28;19924;-53
2022/08/05 05:53:49;;;;;;;3.70;2.47;;;20.60;99.90;;;;;;5037408;28;20550;-53
2022/08/05 05:56:25;;;;;;;2.85;2.15;;;20.70;99.90;;;;;;5037911;28;20041;-61
2022/08/05 05:59:04;;;;;;;2.75;2.30;;;20.80;99.90;;;;;;5021583;28;20511;-53
2022/08/05 06:01:38;;;;;;;2.35;2.15;;;20.90;99.90;;;;;;5017724;28;20576;-52
2022/08/05 06:04:11;;;;;;;2.38;2.10;;;21.00;99.90;;;;;;5017739;28;20048;-53
2022/08/05 06:06:41;;;;;;;2.75;2.55;;;21.00;99.90;;;;;;5017907;28;20506;-51
2022/08/05 06:09:09;;;;;;;2.72;2.53;;;21.10;99.90;;;;;;5017562;28;20045;-51
2022/08/05 06:11:51;;;;;;;4.72;2.60;;;21.20;99.90;;;;;;5037567;28;20510;-49
2022/08/05 06:14:28;;;;;;;5.32;2.55;;;21.30;99.90;;;;;;5036748;28;20485;-49
2022/08/05 06:16:56;;;;;;;2.70;2.50;;;21.40;99.90;;;;;;5036900;28;20048;-49
2022/08/05 06:19:24;;;;;;;3.60;2.83;;;21.50;99.90;;;;;;5036542;28;20045;-53
2022/08/05 06:22:02;;;;;;;3.60;2.28;;;21.50;99.90;;;;;;5037372;28;20047;-53
2022/08/05 06:24:29;;;;;;;2.67;2.30;;;21.50;99.90;;;;;;5036269;28;20053;-53
2022/08/05 06:26:56;;;;;;;2.70;2.50;;;21.60;99.90;;;;;;5036787;28;20075;-52
2022/08/05 06:29:24;;;;;;;2.47;2.25;;;21.60;99.90;;;;;;5036458;28;20119;-52
2022/08/05 06:32:11;;;;;;;2.50;2.20;;;21.60;99.90;;;;;;5037298;28;20049;-52
2022/08/05 06:34:56;;;;;;;2.15;1.95;;;21.70;99.90;;;;;;5037615;28;20212;-53
2022/08/05 06:37:27;;;;;;;3.75;2.83;;;21.70;99.90;;;;;;5035281;28;21049;-55
2022/08/05 06:40:14;;;;;;;3.13;2.83;;;21.80;99.90;;;;;;5037682;28;20049;-63
2022/08/05 06:42:50;;;;;;;2.33;2.17;;;21.90;99.90;;;;;;5037078;28;20070;-63
2022/08/05 06:45:20;;;;;;;4.03;2.42;;;21.90;99.90;;;;;;5036799;28;20099;-62
2022/08/05 06:48:07;;;;;;;3.05;2.38;;;22.10;99.90;;;;;;5036144;28;20049;-62
2022/08/05 06:50:54;;;;;;;4.28;2.97;;;22.10;99.90;;;;;;5037197;28;20594;-62
2022/08/05 06:53:21;;;;;;;3.30;2.50;;;22.20;99.90;;;;;;5036580;28;20564;-63
2022/08/05 06:55:57;;;;;;;2.70;2.20;;;22.20;99.90;;;;;;5036924;28;20083;-63
2022/08/05 06:58:24;;;;;;;2.83;2.60;;;22.30;99.90;;;;;;5035205;28;20051;-61
2022/08/05 07:01:01;;;;;;;3.35;3.05;;;22.30;99.90;;;;;;5014984;28;20599;-66
2022/08/05 07:03:29;;;;;;;4.32;3.10;;;22.40;99.90;;;;;;5015872;28;20049;-61
2022/08/05 07:06:03;;;;;;;4.50;3.58;;;22.60;99.90;;;;;;5015170;28;20533;-63
2022/08/05 07:08:43;;;;;;;6.95;3.75;;;22.70;99.90;;;;;;5017240;28;20108;-62
2022/08/05 07:11:18;;;;;;;3.80;3.30;;;22.90;99.90;;;;;;5031399;28;20147;-63
2022/08/05 07:16:51;;;;;;;5.88;3.78;;;23.30;99.90;;;;;;5036967;28;20106;-60
2022/08/05 07:19:38;;;;;;;5.57;2.80;;;23.50;99.90;;;;;;5035570;28;20078;-65
2022/08/05 07:22:24;;;;;;;4.50;2.97;;;23.70;99.90;;;;;;5034403;28;20735;-61
2022/08/05 07:24:57;;;;;;;4.15;3.50;;;24.00;99.90;;;;;;5036685;28;20147;-62
2022/08/05 07:27:24;;;;;;;6.07;3.03;;;24.20;99.90;;;;;;5035153;28;20826;-62
2022/08/05 07:30:11;;;;;;;3.47;3.03;;;24.30;99.90;;;;;;5036149;28;20627;-61
2022/08/05 07:32:56;;;;;;;3.60;2.75;;;24.40;99.90;;;;;;5036166;28;20262;-62
2022/08/05 07:35:23;;;;;;;3.92;3.33;;;24.60;99.90;;;;;;5036867;28;20044;-62
2022/08/05 07:38:10;;;;;;;6.32;3.40;;;24.70;99.90;;;;;;5034388;28;20048;-61
2022/08/05 07:40:38;;;;;;;5.55;2.92;;;24.90;99.90;;;;;;5036388;28;20048;-62
2022/08/05 07:43:12;;;;;;;12.00;3.25;;;25.10;99.90;;;;;;5033907;28;20147;-62
2022/08/05 07:45:46;;;;;;;3.38;2.97;;;25.10;99.90;;;;;;5034457;28;20074;-61
2022/08/05 07:48:24;;;;;;;5.82;3.53;;;25.20;99.90;;;;;;5035639;28;20146;-61
2022/08/05 07:51:11;;;;;;;;;;;25.40;99.90;;;;;;5035984;28;20839;-62
2022/08/05 07:53:50;;;;;;;3.20;2.80;;;25.50;99.90;;;;;;5035694;28;19921;-61
2022/08/05 07:56:17;;;;;;;5.40;3.42;;;25.70;99.90;;;;;;5035481;28;20598;-62
2022/08/05 07:59:04;;;;;;;6.43;3.63;;;25.90;99.90;;;;;;5036270;28;20044;-60
2022/08/05 08:01:34;;;;;;;4.88;3.05;;;26.00;99.90;;;;;;5028869;28;20041;-60
2022/08/05 08:04:17;;;;;;;3.97;3.40;;;26.10;99.90;;;;;;5014676;28;20103;-62
2022/08/05 08:07:04;;;;;;;3.88;3.20;;;26.10;99.90;;;;;;5015745;28;20559;-61
2022/08/05 08:09:33;;;;;;;6.53;3.75;;;26.30;99.90;;;;;;5018999;28;20694;-61
2022/08/05 08:12:03;;;;;;;4.57;2.95;;;26.50;99.90;;;;;;5035026;28;20040;-61
2022/08/05 08:14:43;;;;;;;4.22;3.50;;;26.80;99.90;;;;;;5034657;28;20036;-62
2022/08/05 08:17:13;;;;;;;3.42;2.75;;;27.10;99.90;;;;;;5034454;28;20132;-63
2022/08/05 08:19:47;;;;;;;6.78;3.00;;;27.50;99.90;;;;;;5033568;28;20055;-63
2022/08/05 08:22:33;;;;;;;4.18;2.70;;;28.00;94.70;;;;;;5015306;28;20056;-62
2022/08/05 08:25:00;;;;;;;3.38;3.08;;;28.30;93.10;;;;;;5014154;28;20671;-62
2022/08/05 08:27:43;;;;;;;2.90;2.55;;;28.60;86.30;;;;;;5033373;28;20883;-61
2022/08/05 08:30:14;;;;;;;6.63;3.53;;;28.90;81.60;;;;;;5034169;28;20128;-62
2022/08/05 08:32:56;;;;;;;7.55;3.10;;;29.10;85.50;;;;;;5034917;28;20048;-61
2022/08/05 08:35:23;;;;;;;6.15;3.05;;;29.10;77.30;;;;;;5017387;28;20059;-61
2022/08/05 08:37:52;;;;;;;4.10;2.67;;;29.10;76.90;;;;;;5033543;28;20060;-61
2022/08/05 08:40:23;;;;;;;4.45;3.42;;;29.10;74.60;;;;;;5034829;28;20079;-61
2022/08/05 08:42:51;;;;;;;2.28;2.10;;;29.20;73.40;;;;;;5033844;28;20091;-61
2022/08/05 08:45:22;;;;;;;6.93;3.13;;;29.20;71.50;;;;;;5033554;28;20045;-62
2022/08/05 08:47:56;;;;;;;4.97;3.03;;;29.20;73.40;;;;;;5034136;28;20983;-61
2022/08/05 08:50:45;;;;;;;3.33;2.78;;;29.40;72.90;;;;;;5034376;28;20127;-63
2022/08/05 08:53:37;;;;;;;6.45;2.95;;;29.80;74.60;;;;;;5034022;28;20579;-63
2022/08/05 08:56:11;;;;;;;8.05;3.35;;;30.10;66.30;;;;;;5034180;28;20048;-62
2022/08/05 08:58:39;;;;;;;2.72;2.53;;;30.30;63.20;;;;;;5033472;28;20045;-63
2022/08/05 09:01:15;;;;;;;4.90;3.08;;;30.40;64.50;;;;;;5024491;28;20784;-63
2022/08/05 09:03:52;;;;;;;2.67;2.42;;;30.60;64.90;;;;;;5013906;28;20046;-61
2022/08/05 09:06:28;;;;;;;3.85;3.30;;;30.80;61.80;;;;;;5014048;28;20124;-61
2022/08/05 09:08:58;;;;;;;3.90;2.92;;;31.00;62.40;;;;;;5015338;28;20271;-62
2022/08/05 09:11:25;;;;;;;5.40;3.25;;;31.00;62.30;;;;;;5031764;28;20055;-60
2022/08/05 09:14:13;;;;;;;7.13;2.83;;;31.20;62.90;;;;;;5032983;28;20049;-62
2022/08/05 09:17:01;;;;;;;4.32;3.30;;;31.30;59.40;;;;;;5035280;28;20733;-62
2022/08/05 09:19:29;;;;;;;5.95;2.92;;;31.50;57.40;;;;;;5034779;28;20044;-62
2022/08/05 09:22:16;;;;;;;5.05;3.55;;;31.60;56.90;;;;;;5034678;28;20120;-62
2022/08/05 09:25:00;;;;;;;7.30;2.90;;;31.70;56.60;;;;;;5032981;28;20558;-62
2022/08/05 09:27:33;;;;;;;7.22;3.40;;;31.60;55.80;;;;;;5033601;28;20041;-62
2022/08/05 09:30:20;;;;;;;7.93;3.00;;;31.70;56.70;;;;;;5033237;28;20045;-62
2022/08/05 09:32:49;;;;;;;6.30;3.25;;;31.70;55.50;;;;;;5034711;28;20041;-62
2022/08/05 09:35:18;;;;;;;3.63;3.03;;;31.80;55.90;;;;;;5034325;28;20502;-62
2022/08/05 09:37:55;;;;;;;4.85;3.22;;;31.80;55.70;;;;;;5034189;28;20965;-62
2022/08/05 09:40:42;;;;;;;3.92;2.88;;;31.80;55.20;;;;;;5032847;28;20044;-62
2022/08/05 09:43:37;;;;;;;8.85;3.30;;;31.80;54.20;;;;;;5034080;28;20103;-62
2022/08/05 09:46:26;;;;;;;5.85;3.05;;;31.80;53.20;;;;;;5034723;28;20059;-62
2022/08/05 09:48:55;;;;;;;8.80;3.22;;;31.60;53.10;;;;;;5034605;28;20048;-62
2022/08/05 09:51:41;;;;;;;5.00;2.95;;;31.60;54.70;;;;;;5033418;28;20412;-62
2022/08/05 09:54:08;;;;;;;4.90;3.35;;;31.60;55.00;;;;;;5033210;28;20044;-62
2022/08/05 09:56:36;;;;;;;6.53;3.42;;;31.70;53.90;;;;;;5033536;28;20049;-62
2022/08/05 09:59:07;;;;;;;6.20;3.17;;;31.70;54.90;;;;;;5035000;28;20059;-62
2022/08/05 10:01:40;;;;;;;8.85;3.55;;;31.80;55.60;;;;;;5030388;28;20072;-62
2022/08/05 10:04:13;;;;;;;8.60;3.70;;;31.90;54.40;;;;;;5012220;28;20385;-62
2022/08/05 10:06:56;;;;;;;7.28;3.65;;;32.00;54.60;;;;;;5013091;28;20042;-62
2022/08/05 10:09:27;;;;;;;5.15;2.90;;;32.10;54.90;;;;;;5015889;28;20052;-61
2022/08/05 10:12:14;;;;;;;8.00;3.50;;;32.20;53.90;;;;;;5032303;28;20045;-61
2022/08/05 10:15:21;;;;;;;5.18;3.55;;;32.20;52.20;;;;;;5033078;28;20041;-62
2022/08/05 10:18:08;;;;;;;7.97;3.30;;;32.20;50.80;;;;;;5034267;28;20049;-62
2022/08/05 10:20:39;;;;;;;3.53;2.90;;;32.20;52.20;;;;;;5033391;28;20052;-62
2022/08/05 10:23:08;;;;;;;5.07;2.70;;;32.40;52.40;;;;;;5033268;28;20049;-62
2022/08/05 10:25:56;;;;;;;6.35;3.25;;;32.50;52.50;;;;;;5032810;28;20056;-62
2022/08/05 10:28:23;;;;;;;8.38;3.33;;;32.70;52.30;;;;;;5032449;28;20057;-62
2022/08/05 10:30:57;;;;;;;5.53;3.90;;;32.70;52.20;;;;;;5032348;28;20099;-62
2022/08/05 10:33:44;;;;;;;5.93;3.45;;;32.70;50.70;;;;;;5033554;28;20059;-62
2022/08/05 10:36:20;;;;;;;4.60;2.70;;;32.60;51.60;;;;;;5034889;28;20037;-62
2022/08/05 10:38:59;;;;;;;11.00;3.17;;;32.60;51.00;;;;;;5037830;28;20052;-61
2022/08/05 10:41:38;;;;;;;11.68;3.33;;;32.40;52.20;;;;;;5036483;28;20053;-61
2022/08/05 10:44:17;;;;;;;8.27;3.33;;;32.30;51.90;;;;;;5037557;28;20044;-62
2022/08/05 10:46:49;;;;;;;5.28;3.22;;;32.10;53.50;;;;;;5037215;28;20037;-62
2022/08/05 10:49:17;;;;;;;7.40;3.22;;;31.90;52.70;;;;;;5036584;28;20041;-61
2022/08/05 10:51:58;;;;;;;4.28;3.47;;;31.80;53.20;;;;;;5037119;28;20844;-61
2022/08/05 10:54:46;;;;;;;6.80;3.55;;;31.40;53.10;;;;;;5036106;28;20613;-61
2022/08/05 10:57:27;;;;;;;4.47;3.25;;;31.10;54.10;;;;;;5001414;28;20053;-61
2022/08/05 11:00:23;;;;;;;3.40;3.10;;;30.90;55.00;;;;;;5017921;28;20045;-61
2022/08/05 11:03:05;;;;;;;5.18;3.00;;;30.80;55.90;;;;;;5016620;28;20033;-60
2022/08/05 11:06:03;;;;;;;4.18;3.03;;;30.70;55.90;;;;;;5016655;28;20491;-61
2022/08/05 11:08:31;;;;;;;6.65;3.28;;;30.60;56.40;;;;;;5017713;28;20539;-61
2022/08/05 11:11:34;;;;;;;5.57;3.22;;;30.50;56.90;;;;;;5031586;28;20499;-61
2022/08/05 11:14:32;;;;;;;4.43;3.10;;;30.50;57.80;;;;;;5034591;28;20553;-62
2022/08/05 11:17:28;;;;;;;6.60;3.40;;;30.50;56.70;;;;;;5037387;28;20049;-62
2022/08/05 11:20:37;;;;;;;8.50;3.65;;;30.50;58.10;;;;;;5036512;28;20048;-62
2022/08/05 11:23:35;;;;;;;13.80;3.33;;;30.50;58.40;;;;;;5036261;28;20036;-62
2022/08/05 11:26:23;;;;;;;5.45;3.60;;;30.80;57.70;;;;;;5035438;28;20057;-62
2022/08/05 11:28:55;;;;;;;11.07;3.53;;;31.10;58.30;;;;;;5035445;28;20959;-62
2022/08/05 11:31:28;;;;;;;4.60;3.30;;;31.50;57.00;;;;;;5036054;28;20063;-62
2022/08/05 11:34:34;;;;;;;5.18;3.30;;;31.90;54.80;;;;;;5034888;28;20032;-62
2022/08/05 11:37:01;;;;;;;7.90;4.07;;;32.30;54.40;;;;;;5036867;28;20953;-62
2022/08/05 11:39:50;;;;;;;7.57;3.28;;;32.60;54.20;;;;;;5036315;28;20051;-62
2022/08/05 11:42:32;;;;;;;9.48;3.42;;;32.70;52.80;;;;;;5034594;28;20144;-62
2022/08/05 11:45:07;;;;;;;6.65;3.63;;;32.80;53.20;;;;;;5037194;28;20059;-62
2022/08/05 11:47:54;;;;;;;6.43;3.25;;;32.80;54.10;;;;;;5035812;28;20131;-62
2022/08/05 11:50:21;;;;;;;4.30;2.85;;;33.00;52.90;;;;;;5036025;28;20499;-60
2022/08/05 11:52:48;;;;;;;11.05;2.88;;;33.20;51.80;;;;;;5018356;28;20095;-62
2022/08/05 11:55:20;;;;;;;3.97;3.58;;;33.30;52.00;;;;;;5018965;28;20488;-60
2022/08/05 11:57:57;;;;;;;7.53;2.83;;;33.50;53.30;;;;;;5036291;28;20131;-63
2022/08/05 12:00:39;;;;;;;3.85;3.13;;;33.60;52.10;;;;;;5034018;28;20859;-60
2022/08/05 12:03:19;;;;;;;5.93;3.40;;;33.80;51.60;;;;;;5034503;28;20630;-60
2022/08/05 12:06:00;;;;;;;4.85;2.95;;;34.00;51.50;;;;;;5015550;28;20053;-62
2022/08/05 12:08:28;;;;;;;3.30;2.60;;;34.10;52.00;;;;;;5016165;28;20041;-62
2022/08/05 12:11:02;;;;;;;3.58;2.70;;;34.30;51.40;;;;;;5030598;28;20122;-62
2022/08/05 12:13:33;;;;;;;3.42;2.92;;;34.40;51.00;;;;;;5034513;28;20056;-62
2022/08/05 12:16:18;;;;;;;5.30;3.50;;;34.40;51.10;;;;;;5034107;28;20049;-61
2022/08/05 12:18:45;;;;;;;5.43;3.15;;;34.50;50.30;;;;;;5035864;28;20045;-62
2022/08/05 12:21:24;;;;;;;3.85;3.13;;;34.40;50.30;;;;;;5035672;28;20572;-60
2022/08/05 12:24:06;;;;;;;5.28;2.53;;;34.40;49.50;;;;;;5036181;28;20053;-61
2022/08/05 12:26:39;;;;;;;7.15;3.00;;;34.40;49.70;;;;;;5032665;28;20064;-61
2022/08/05 12:29:16;;;;;;;3.90;2.85;;;34.50;48.60;;;;;;5036291;28;20706;-61
2022/08/05 12:31:56;;;;;;;4.60;2.95;;;34.50;48.70;;;;;;5035298;28;20041;-61
2022/08/05 12:34:32;;;;;;;2.75;2.53;;;34.60;49.20;;;;;;5035417;28;20041;-61
2022/08/05 12:37:11;;;;;;;5.10;3.38;;;34.60;49.00;;;;;;5034288;28;20054;-61
2022/08/05 12:39:49;;;;;;;8.07;3.17;;;34.70;49.40;;;;;;5033478;28;20060;-59
2022/08/05 12:42:19;;;;;;;6.40;2.72;;;34.80;48.50;;;;;;5035450;28;20045;-60
2022/08/05 12:44:47;;;;;;;6.85;3.00;;;34.90;49.60;;;;;;5034398;28;20107;-59
2022/08/05 12:47:26;;;;;;;5.43;3.00;;;34.90;48.00;;;;;;5035496;28;20053;-60
2022/08/05 12:49:57;;;;;;;5.80;2.95;;;34.90;48.70;;;;;;5035129;28;20450;-61
2022/08/05 12:52:34;;;;;;;7.17;3.03;;;35.00;49.20;;;;;;5035675;28;20047;-61
2022/08/05 12:55:25;;;;;;;4.43;2.95;;;35.00;48.60;;;;;;5034163;28;20064;-61
2022/08/05 12:57:55;;;;;;;3.42;2.80;;;35.00;47.90;;;;;;5033500;28;20184;-60
2022/08/05 13:00:45;;;;;;;7.18;2.67;;;35.00;47.40;;;;;;5034425;28;20055;-61
2022/08/05 13:03:38;;;;;;;5.60;3.30;;;34.90;47.70;;;;;;5034909;28;20045;-60
2022/08/05 13:06:14;;;;;;;6.18;3.05;;;34.70;48.00;;;;;;5017268;28;20822;-61
2022/08/05 13:08:42;;;;;;;3.67;2.70;;;34.60;48.60;;;;;;5015277;28;20064;-62
2022/08/05 13:11:22;;;;;;;3.88;3.17;;;34.60;48.80;;;;;;5031350;28;20056;-61
2022/08/05 13:14:21;;;;;;;7.85;2.95;;;34.60;48.60;;;;;;5033649;28;20049;-62
2022/08/05 13:17:05;;;;;;;4.43;2.80;;;34.60;48.20;;;;;;5032514;28;20052;-62
2022/08/05 13:19:33;;;;;;;4.32;3.03;;;34.80;48.40;;;;;;5033363;28;20123;-62
2022/08/05 13:22:20;;;;;;;8.02;2.63;;;34.90;48.40;;;;;;5033394;28;20049;-62
2022/08/05 13:24:56;;;;;;;5.78;2.97;;;34.90;47.80;;;;;;5034772;28;20614;-64
2022/08/05 13:27:32;;;;;;;3.05;2.60;;;34.90;48.10;;;;;;5032903;28;20809;-62
2022/08/05 13:30:07;;;;;;;4.25;2.55;;;34.70;47.70;;;;;;5033705;28;20045;-62
2022/08/05 13:32:54;;;;;;;7.72;3.20;;;34.50;48.40;;;;;;5034453;28;20049;-62
2022/08/05 13:35:22;;;;;;;3.88;2.72;;;34.30;48.60;;;;;;5034219;28;20060;-62
2022/08/05 13:38:09;;;;;;;;;;;34.20;49.10;;;;;;5034067;28;20522;-62
2022/08/05 13:40:46;;;;;;;5.85;2.58;;;34.20;49.20;;;;;;5032140;28;19921;-61